Time;durP1;ratioP1;P1;durP2;ratioP2;P2;SDS_P1;SDS_P2;PMS_P1;PMS_P2;Temp;Humidity;BMP_temperature;BMP_pressure;BME280_temperature;BME280_humidity;BME280_pressure;Samples;Min_cycle;Max_cycle;Signal;HPM_P1;HPM_P2
2022/08/09 00:01:35;;;;;;;6.30;4.75;;;14.30;99.90;;;;;;5065825;28;20124;-74
2022/08/09 00:04:01;;;;;;;10.73;5.18;;;14.30;99.90;;;;;;5054241;28;20463;-75
2022/08/09 00:06:26;;;;;;;8.48;4.68;;;14.20;99.90;;;;;;5065172;28;20063;-75
2022/08/09 00:08:53;;;;;;;5.90;4.80;;;14.30;99.90;;;;;;5062361;28;20519;-73
2022/08/09 00:11:20;;;;;;;6.93;4.90;;;14.40;99.90;;;;;;5065857;28;20048;-74
2022/08/09 00:13:46;;;;;;;6.00;4.68;;;14.60;99.90;;;;;;5061159;28;20415;-74
2022/08/09 00:16:12;;;;;;;4.90;3.90;;;14.40;99.90;;;;;;5065667;28;20360;-74
2022/08/09 00:18:38;;;;;;;4.65;4.25;;;14.30;99.90;;;;;;5065347;28;20028;-74
2022/08/09 00:21:05;;;;;;;7.60;4.75;;;14.20;99.90;;;;;;5061963;28;20048;-74
2022/08/09 00:23:32;;;;;;;6.35;4.68;;;14.20;99.90;;;;;;5061906;28;20083;-73
2022/08/09 00:25:57;;;;;;;7.43;5.07;;;14.30;99.90;;;;;;5061544;28;20052;-74
2022/08/09 00:28:23;;;;;;;8.18;4.70;;;14.40;99.90;;;;;;5063604;28;20039;-73
2022/08/09 00:30:50;;;;;;;4.75;3.88;;;14.30;99.90;;;;;;5061999;28;20135;-73
2022/08/09 00:33:16;;;;;;;5.57;3.33;;;14.30;99.90;;;;;;5063739;28;20410;-74
2022/08/09 00:35:41;;;;;;;4.93;3.65;;;14.10;99.90;;;;;;5063878;28;20048;-74
2022/08/09 00:38:11;;;;;;;5.25;4.25;;;14.10;99.90;;;;;;5053383;28;20039;-74
2022/08/09 00:40:37;;;;;;;4.13;3.30;;;14.00;99.90;;;;;;5059716;28;20036;-73
2022/08/09 00:43:03;;;;;;;5.85;3.72;;;14.10;99.90;;;;;;5064384;28;20434;-74
2022/08/09 00:45:29;;;;;;;4.07;3.67;;;14.10;99.90;;;;;;5044966;28;20044;-75
2022/08/09 00:47:54;;;;;;;4.80;3.65;;;14.00;99.90;;;;;;5064858;28;20134;-73
2022/08/09 00:50:20;;;;;;;4.50;3.75;;;14.10;99.90;;;;;;5061502;28;20037;-73
2022/08/09 00:52:46;;;;;;;4.38;3.67;;;14.20;99.90;;;;;;5064455;28;20491;-73
2022/08/09 00:55:11;;;;;;;6.32;3.47;;;14.10;99.90;;;;;;5063380;28;20071;-74
2022/08/09 00:57:37;;;;;;;3.55;2.63;;;13.70;99.90;;;;;;5067383;28;20067;-74
2022/08/09 01:00:08;;;;;;;3.35;3.05;;;13.60;99.90;;;;;;5066440;28;20490;-74
2022/08/09 01:02:37;;;;;;;3.25;2.67;;;13.60;99.90;;;;;;5066963;28;20067;-74
2022/08/09 01:05:22;;;;;;;2.75;2.22;;;13.60;99.90;;;;;;5064194;28;20051;-73
2022/08/09 01:08:19;;;;;;;2.83;2.63;;;13.70;99.90;;;;;;5068727;28;20428;-73
2022/08/09 01:11:03;;;;;;;4.68;3.05;;;13.90;99.90;;;;;;5068042;28;20049;-73
2022/08/09 01:13:35;;;;;;;2.75;2.45;;;13.90;99.90;;;;;;5066636;28;20449;-73
2022/08/09 01:16:04;;;;;;;3.63;2.88;;;13.80;99.90;;;;;;5064941;28;20329;-74
2022/08/09 01:18:33;;;;;;;2.50;2.30;;;13.70;99.90;;;;;;5067383;28;20052;-74
2022/08/09 01:21:13;;;;;;;3.33;2.50;;;13.60;99.90;;;;;;5067210;28;20275;-74
2022/08/09 01:23:54;;;;;;;2.83;2.60;;;13.60;99.90;;;;;;5066020;28;20068;-74
2022/08/09 01:26:28;;;;;;;3.83;2.25;;;13.70;99.90;;;;;;5061989;28;20049;-73
2022/08/09 01:28:55;;;;;;;5.22;2.53;;;13.60;99.90;;;;;;5061646;28;20036;-73
2022/08/09 01:31:25;;;;;;;3.45;3.10;;;13.60;99.90;;;;;;5066455;28;20555;-73
2022/08/09 01:33:53;;;;;;;7.80;3.25;;;13.60;99.90;;;;;;5066362;28;20479;-73
2022/08/09 01:36:24;;;;;;;4.95;2.97;;;13.60;99.90;;;;;;5065185;28;20055;-69
2022/08/09 01:38:51;;;;;;;2.53;2.33;;;13.70;99.90;;;;;;5063410;28;20112;-72
2022/08/09 01:41:27;;;;;;;3.53;2.63;;;13.40;99.90;;;;;;5065786;28;20044;-72
2022/08/09 01:43:56;;;;;;;3.33;3.00;;;13.30;99.90;;;;;;5064051;28;20028;-72
2022/08/09 01:46:26;;;;;;;3.33;2.55;;;13.00;99.90;;;;;;5066008;28;20079;-74
2022/08/09 01:49:00;;;;;;;2.30;2.08;;;13.00;99.90;;;;;;5065940;28;20044;-73
2022/08/09 01:51:28;;;;;;;3.15;1.95;;;12.80;99.90;;;;;;5080206;23;20059;-71
2022/08/09 01:53:56;;;;;;;1.90;1.50;;;12.60;99.90;;;;;;5047373;28;20131;-70
2022/08/09 01:56:25;;;;;;;2.13;1.92;;;12.50;99.90;;;;;;5067715;28;20094;-70
2022/08/09 01:58:52;;;;;;;2.65;2.45;;;12.60;99.90;;;;;;5064904;28;20048;-70
2022/08/09 02:01:19;;;;;;;2.90;2.35;;;12.60;99.90;;;;;;5065717;28;20040;-70
2022/08/09 02:03:46;;;;;;;3.58;3.28;;;12.80;99.90;;;;;;5034119;28;20056;-69
2022/08/09 02:06:13;;;;;;;4.03;2.90;;;12.90;99.90;;;;;;5056419;28;20049;-70
2022/08/09 02:08:42;;;;;;;4.07;2.80;;;13.10;99.90;;;;;;5056594;28;20047;-72
2022/08/09 02:11:10;;;;;;;4.28;2.08;;;12.90;99.90;;;;;;5064959;28;20074;-72
2022/08/09 02:13:37;;;;;;;4.47;3.55;;;12.80;99.90;;;;;;5063027;28;20040;-71
2022/08/09 02:16:04;;;;;;;4.68;3.40;;;12.80;99.90;;;;;;5067327;28;20049;-71
2022/08/09 02:18:30;;;;;;;5.13;3.03;;;12.80;99.90;;;;;;5067252;28;20037;-70
2022/08/09 02:21:07;;;;;;;4.07;2.67;;;12.70;99.90;;;;;;5065437;28;20098;-70
2022/08/09 02:23:48;;;;;;;3.28;2.97;;;12.70;99.90;;;;;;5066484;28;20066;-70
2022/08/09 02:26:16;;;;;;;2.80;2.60;;;12.70;99.90;;;;;;5046898;28;20118;-71
2022/08/09 02:28:50;;;;;;;5.15;3.42;;;12.80;99.90;;;;;;5058536;28;20115;-70
2022/08/09 02:31:20;;;;;;;3.08;2.60;;;12.80;99.90;;;;;;5065301;28;20048;-70
2022/08/09 02:33:48;;;;;;;3.40;3.00;;;12.70;99.90;;;;;;5065384;28;20051;-71
2022/08/09 02:36:26;;;;;;;6.55;3.58;;;12.70;99.90;;;;;;5030037;28;20041;-70
2022/08/09 02:38:54;;;;;;;4.07;3.00;;;12.80;99.90;;;;;;5046343;28;20091;-70
2022/08/09 02:41:27;;;;;;;4.13;3.40;;;12.80;99.90;;;;;;5047813;28;20106;-70
2022/08/09 02:43:59;;;;;;;6.00;3.97;;;12.70;99.90;;;;;;5045830;28;20438;-71
2022/08/09 02:46:28;;;;;;;6.70;4.18;;;12.80;99.90;;;;;;5045393;28;20041;-71
2022/08/09 02:48:57;;;;;;;4.80;4.00;;;12.80;99.90;;;;;;5049131;28;20383;-71
2022/08/09 02:51:25;;;;;;;6.15;4.03;;;12.90;99.90;;;;;;5072940;28;20047;-70
2022/08/09 02:53:54;;;;;;;4.30;3.88;;;12.90;99.90;;;;;;5087165;28;20048;-71
2022/08/09 02:56:21;;;;;;;6.10;3.53;;;12.90;99.90;;;;;;5064764;28;20056;-71
2022/08/09 02:58:49;;;;;;;3.85;3.03;;;12.80;99.90;;;;;;5046151;28;20044;-70
2022/08/09 03:01:17;;;;;;;5.75;3.17;;;12.70;99.90;;;;;;5044484;28;20102;-71
2022/08/09 03:03:44;;;;;;;7.45;3.80;;;12.60;99.90;;;;;;5049413;28;20888;-70
2022/08/09 03:06:13;;;;;;;4.93;3.33;;;12.60;99.90;;;;;;5064717;28;20207;-70
2022/08/09 03:08:43;;;;;;;5.80;3.50;;;12.80;99.90;;;;;;5066668;28;20505;-70
2022/08/09 03:11:13;;;;;;;5.18;4.22;;;12.70;99.90;;;;;;5043255;28;20743;-71
2022/08/09 03:13:38;;;;;;;5.03;4.53;;;12.90;99.90;;;;;;5065722;28;20087;-71
2022/08/09 03:16:05;;;;;;;4.35;3.95;;;12.80;99.90;;;;;;5066785;28;20071;-72
2022/08/09 03:18:31;;;;;;;8.40;3.92;;;12.70;99.90;;;;;;5039535;28;20403;-72
2022/08/09 03:20:58;;;;;;;4.93;3.88;;;12.70;99.90;;;;;;5028497;28;20033;-70
2022/08/09 03:23:23;;;;;;;7.28;4.53;;;12.60;99.90;;;;;;5061142;28;20044;-70
2022/08/09 03:25:49;;;;;;;5.25;3.70;;;12.60;99.90;;;;;;5045346;28;20411;-71
2022/08/09 03:28:16;;;;;;;7.72;4.30;;;12.30;99.90;;;;;;5065398;28;20123;-70
2022/08/09 03:30:43;;;;;;;8.07;5.20;;;12.30;99.90;;;;;;5062361;28;20436;-71
2022/08/09 03:33:09;;;;;;;11.27;4.90;;;12.30;99.90;;;;;;5028704;28;20952;-71
2022/08/09 03:35:35;;;;;;;10.55;5.50;;;12.30;99.90;;;;;;5065020;28;20044;-70
2022/08/09 03:38:02;;;;;;;11.13;4.93;;;12.30;99.90;;;;;;5066112;28;20044;-69
2022/08/09 03:40:28;;;;;;;11.38;5.70;;;12.30;99.90;;;;;;5065674;28;20040;-69
2022/08/09 03:42:54;;;;;;;10.68;6.28;;;12.40;99.90;;;;;;5045125;28;20048;-70
2022/08/09 03:45:20;;;;;;;7.88;5.35;;;12.40;99.90;;;;;;5063055;28;20090;-71
2022/08/09 03:47:45;;;;;;;11.07;7.50;;;12.50;99.90;;;;;;5047975;28;20082;-70
2022/08/09 03:50:12;;;;;;;12.95;7.78;;;12.60;99.90;;;;;;5065551;28;20055;-71
2022/08/09 03:52:41;;;;;;;13.35;6.22;;;12.50;99.90;;;;;;5046237;28;20489;-71
2022/08/09 03:55:09;;;;;;;11.80;6.80;;;12.40;99.90;;;;;;5053585;28;20430;-71
2022/08/09 03:57:35;;;;;;;10.98;6.88;;;12.50;99.90;;;;;;5064157;28;20358;-71
2022/08/09 04:00:01;;;;;;;7.78;4.88;;;12.30;99.90;;;;;;5064393;28;20278;-70
2022/08/09 04:02:29;;;;;;;9.90;6.00;;;12.20;99.90;;;;;;5045851;28;20613;-71
2022/08/09 04:04:57;;;;;;;8.18;5.63;;;12.20;99.90;;;;;;5063481;28;20384;-70
2022/08/09 04:07:23;;;;;;;9.48;5.57;;;12.10;99.90;;;;;;5066092;28;20135;-70
2022/08/09 04:09:48;;;;;;;8.68;4.78;;;12.10;99.90;;;;;;5062441;28;20124;-71
2022/08/09 04:12:14;;;;;;;9.43;5.38;;;12.10;99.90;;;;;;5065259;28;20497;-70
2022/08/09 04:14:40;;;;;;;7.43;4.72;;;12.10;99.90;;;;;;5063249;28;20608;-70
2022/08/09 04:17:07;;;;;;;8.60;5.50;;;12.30;99.90;;;;;;5060967;28;20116;-71
2022/08/09 04:19:33;;;;;;;16.95;5.32;;;12.20;99.90;;;;;;5045791;28;20037;-71
2022/08/09 04:21:59;;;;;;;6.03;4.65;;;12.30;99.90;;;;;;5047237;28;20094;-71
2022/08/09 04:24:25;;;;;;;9.18;4.40;;;12.40;99.90;;;;;;5061041;28;20124;-71
2022/08/09 04:26:52;;;;;;;11.85;4.45;;;12.40;99.90;;;;;;5041817;28;20037;-71
2022/08/09 04:29:17;;;;;;;3.67;2.63;;;12.30;99.90;;;;;;5057703;28;20056;-70
2022/08/09 04:31:43;;;;;;;12.07;2.60;;;12.40;99.90;;;;;;5068356;28;20043;-70
2022/08/09 04:34:08;;;;;;;10.85;2.45;;;12.40;99.90;;;;;;5047561;28;20082;-70
2022/08/09 04:36:34;;;;;;;21.15;2.22;;;12.40;99.90;;;;;;5054125;28;20056;-70
2022/08/09 04:39:07;;;;;;;14.75;2.20;;;12.40;99.90;;;;;;5051198;28;20041;-71
2022/08/09 04:41:33;;;;;;;4.15;2.33;;;12.40;99.90;;;;;;5065520;28;20044;-71
2022/08/09 04:43:59;;;;;;;8.63;3.10;;;12.40;99.90;;;;;;5058434;28;20041;-70
2022/08/09 04:46:25;;;;;;;3.38;3.08;;;12.40;99.90;;;;;;5058065;28;20045;-71
2022/08/09 04:48:51;;;;;;;3.65;3.05;;;12.30;99.90;;;;;;5051125;28;20121;-71
2022/08/09 04:51:16;;;;;;;7.90;3.58;;;12.20;99.90;;;;;;5051452;28;20052;-70
2022/08/09 04:53:42;;;;;;;4.70;3.53;;;12.30;99.90;;;;;;5068955;28;20122;-71
2022/08/09 04:56:08;;;;;;;3.55;3.15;;;12.40;99.90;;;;;;5063830;28;20064;-70
2022/08/09 04:58:33;;;;;;;4.30;3.90;;;12.50;99.90;;;;;;5067378;28;20494;-70
2022/08/09 05:01:00;;;;;;;4.70;3.38;;;12.40;99.90;;;;;;5055860;28;20037;-70
2022/08/09 05:03:26;;;;;;;10.27;3.30;;;12.30;99.90;;;;;;5052488;28;20458;-71
2022/08/09 05:05:52;;;;;;;4.93;4.03;;;12.10;99.90;;;;;;5050333;28;20108;-70
2022/08/09 05:08:18;;;;;;;89.78;7.60;;;12.20;99.90;;;;;;5068739;28;20093;-70
2022/08/09 05:10:44;;;;;;;3.20;2.78;;;12.50;99.90;;;;;;5067784;28;20068;-70
2022/08/09 05:13:10;;;;;;;6.70;3.70;;;12.70;99.90;;;;;;5049838;28;20657;-70
2022/08/09 05:15:35;;;;;;;5.15;3.53;;;12.50;99.90;;;;;;5067604;28;20040;-70
2022/08/09 05:18:01;;;;;;;8.40;4.03;;;12.60;99.90;;;;;;5055843;28;20167;-70
2022/08/09 05:20:28;;;;;;;5.57;3.92;;;12.80;99.90;;;;;;5068559;28;20411;-70
2022/08/09 05:22:54;;;;;;;3.70;3.35;;;12.90;99.90;;;;;;5068047;28;20055;-70
2022/08/09 05:25:20;;;;;;;7.47;4.75;;;13.00;99.90;;;;;;5066088;28;20044;-70
2022/08/09 05:27:47;;;;;;;4.57;4.10;;;13.00;99.90;;;;;;5050848;28;20131;-71
2022/08/09 05:30:13;;;;;;;4.65;3.53;;;13.10;99.90;;;;;;5048721;28;20056;-70
2022/08/09 05:32:39;;;;;;;6.45;5.80;;;13.30;99.90;;;;;;5064046;28;20040;-70
2022/08/09 05:35:05;;;;;;;4.28;3.55;;;13.20;99.90;;;;;;5065915;28;20383;-70
2022/08/09 05:37:31;;;;;;;4.40;4.00;;;13.30;99.90;;;;;;5049681;28;20478;-69
2022/08/09 05:39:59;;;;;;;4.53;4.03;;;13.50;99.90;;;;;;5028649;28;20133;-69
2022/08/09 05:42:25;;;;;;;5.35;4.47;;;13.70;99.90;;;;;;5065537;28;20032;-69
2022/08/09 05:44:53;;;;;;;5.82;5.22;;;13.80;99.90;;;;;;5050988;28;20064;-70
2022/08/09 05:47:20;;;;;;;5.05;4.55;;;13.70;99.90;;;;;;5062611;28;20094;-70
2022/08/09 05:49:46;;;;;;;6.97;5.05;;;13.80;99.90;;;;;;5048775;28;20088;-70
2022/08/09 05:52:12;;;;;;;5.95;5.22;;;13.80;99.90;;;;;;5049203;28;20083;-70
2022/08/09 05:54:38;;;;;;;9.57;5.80;;;14.10;99.90;;;;;;5043039;28;20110;-69
2022/08/09 05:57:03;;;;;;;8.20;5.57;;;14.00;99.90;;;;;;5060768;28;20040;-70
2022/08/09 05:59:29;;;;;;;9.63;6.03;;;14.40;99.90;;;;;;5049332;28;20136;-70
2022/08/09 06:01:55;;;;;;;7.85;5.68;;;14.50;99.90;;;;;;5037197;28;20076;-70
2022/08/09 06:04:21;;;;;;;10.57;5.80;;;14.40;99.90;;;;;;5066316;28;20040;-70
2022/08/09 06:06:47;;;;;;;8.40;6.93;;;14.60;99.90;;;;;;5066593;28;20040;-70
2022/08/09 06:09:13;;;;;;;9.88;6.85;;;14.60;99.90;;;;;;5067744;28;20379;-70
2022/08/09 06:11:39;;;;;;;8.40;6.25;;;15.00;99.90;;;;;;5064480;28;20044;-69
2022/08/09 06:14:04;;;;;;;10.02;6.43;;;14.80;99.90;;;;;;5048474;28;20048;-71
2022/08/09 06:16:30;;;;;;;6.40;5.47;;;15.00;99.90;;;;;;5064431;28;20068;-70
2022/08/09 06:18:56;;;;;;;7.03;5.22;;;15.00;99.90;;;;;;5047600;28;20052;-70
2022/08/09 06:21:21;;;;;;;9.07;6.45;;;15.30;99.90;;;;;;5049152;28;20410;-70
2022/08/09 06:23:47;;;;;;;9.02;5.45;;;15.10;99.90;;;;;;5046345;28;20036;-69
2022/08/09 06:26:14;;;;;;;10.32;6.13;;;15.30;99.90;;;;;;5046590;28;20438;-69
2022/08/09 06:28:40;;;;;;;7.40;6.30;;;15.30;99.90;;;;;;5043756;28;20048;-69
2022/08/09 06:31:06;;;;;;;8.32;6.95;;;15.70;99.90;;;;;;5044029;28;20411;-69
2022/08/09 06:33:31;;;;;;;7.82;5.57;;;15.80;99.90;;;;;;5044470;28;20048;-69
2022/08/09 06:35:57;;;;;;;11.10;6.07;;;15.80;99.90;;;;;;5049633;28;20040;-71
2022/08/09 06:38:23;;;;;;;10.57;6.70;;;15.70;99.90;;;;;;5062851;28;20048;-73
2022/08/09 06:40:48;;;;;;;8.95;5.78;;;15.80;99.90;;;;;;5047200;28;20045;-73
2022/08/09 06:43:14;;;;;;;7.30;5.97;;;16.30;99.90;;;;;;5065579;28;20040;-73
2022/08/09 06:45:40;;;;;;;12.15;6.35;;;16.00;99.90;;;;;;5049399;28;20048;-72
2022/08/09 06:48:06;;;;;;;16.67;7.30;;;16.30;99.90;;;;;;5064516;28;20053;-73
2022/08/09 06:50:32;;;;;;;9.88;5.38;;;16.30;99.90;;;;;;5065630;28;20037;-72
2022/08/09 06:52:59;;;;;;;7.80;5.43;;;16.30;99.90;;;;;;5063215;28;20049;-73
2022/08/09 06:55:28;;;;;;;10.35;5.72;;;16.60;99.90;;;;;;5043875;28;20037;-72
2022/08/09 06:57:54;;;;;;;7.30;5.30;;;16.50;99.90;;;;;;5042298;28;20052;-73
2022/08/09 07:00:20;;;;;;;7.28;4.70;;;16.70;99.90;;;;;;5066697;28;20485;-73
2022/08/09 07:02:46;;;;;;;6.82;4.32;;;16.60;99.90;;;;;;5045059;28;20091;-72
2022/08/09 07:05:12;;;;;;;6.00;3.63;;;17.20;99.90;;;;;;5028505;28;20055;-72
2022/08/09 07:07:38;;;;;;;8.18;4.30;;;17.20;99.90;;;;;;5028157;28;20053;-72
2022/08/09 07:10:04;;;;;;;6.40;4.38;;;17.40;99.90;;;;;;5043653;28;20432;-72
2022/08/09 07:12:29;;;;;;;4.72;3.38;;;17.60;99.90;;;;;;5062929;28;20124;-73
2022/08/09 07:14:55;;;;;;;7.15;3.75;;;19.10;99.90;;;;;;5064068;28;20127;-72
2022/08/09 07:17:21;;;;;;;6.55;4.18;;;20.20;99.90;;;;;;5064460;28;20136;-72
2022/08/09 07:19:46;;;;;;;5.13;3.75;;;20.80;99.90;;;;;;5065803;28;20631;-72
2022/08/09 07:22:12;;;;;;;25.35;5.55;;;21.40;99.90;;;;;;5064148;28;20052;-72
2022/08/09 07:24:38;;;;;;;5.50;3.85;;;21.30;99.90;;;;;;5044380;28;20046;-73
2022/08/09 07:27:03;;;;;;;5.80;3.53;;;22.00;99.90;;;;;;5045337;28;20866;-73
2022/08/09 07:29:29;;;;;;;3.75;3.22;;;21.90;99.90;;;;;;5047748;28;20128;-72
2022/08/09 07:31:56;;;;;;;4.25;2.60;;;21.80;99.90;;;;;;5065126;28;20457;-73
2022/08/09 07:34:22;;;;;;;4.95;3.20;;;20.90;99.90;;;;;;5065416;28;20123;-73
2022/08/09 07:36:48;;;;;;;3.08;1.73;;;20.10;99.90;;;;;;5061866;28;20111;-73
2022/08/09 07:39:14;;;;;;;6.18;2.13;;;19.90;99.90;;;;;;5064323;28;20099;-73
2022/08/09 07:41:39;;;;;;;5.70;1.60;;;19.60;99.90;;;;;;5063461;28;20044;-73
2022/08/09 07:44:05;;;;;;;2.70;1.85;;;19.60;99.90;;;;;;5064971;28;20042;-74
2022/08/09 07:46:31;;;;;;;2.78;2.05;;;19.20;99.90;;;;;;5063353;28;20040;-73
2022/08/09 07:48:56;;;;;;;1.45;1.30;;;19.40;99.90;;;;;;5043935;28;20036;-69
2022/08/09 07:51:22;;;;;;;3.63;1.40;;;19.50;99.90;;;;;;5066086;28;20086;-69
2022/08/09 07:53:51;;;;;;;3.05;1.30;;;19.50;99.90;;;;;;5046209;28;20075;-69
2022/08/09 07:56:17;;;;;;;5.22;2.70;;;19.40;99.90;;;;;;5064335;28;20044;-67
2022/08/09 07:58:43;;;;;;;4.35;1.73;;;19.00;99.90;;;;;;5057939;28;20045;-67
2022/08/09 08:01:08;;;;;;;2.47;1.23;;;19.10;99.90;;;;;;5061103;28;20084;-67
2022/08/09 08:03:34;;;;;;;5.80;1.30;;;19.40;99.90;;;;;;5064925;28;20115;-68
2022/08/09 08:06:00;;;;;;;3.38;1.70;;;19.50;99.90;;;;;;5065838;28;20028;-68
2022/08/09 08:08:26;;;;;;;2.63;0.90;;;19.70;99.90;;;;;;5044208;28;20590;-68
2022/08/09 08:10:51;;;;;;;2.08;1.17;;;19.70;99.90;;;;;;5046532;28;20036;-67
2022/08/09 08:13:17;;;;;;;1.60;1.42;;;19.80;99.90;;;;;;5043663;28;20205;-68
2022/08/09 08:15:44;;;;;;;2.80;1.10;;;20.20;99.90;;;;;;5043251;28;20115;-68
2022/08/09 08:18:10;;;;;;;1.30;0.82;;;19.80;99.90;;;;;;5065620;28;20495;-68
2022/08/09 08:20:36;;;;;;;2.83;1.30;;;19.90;99.90;;;;;;5064368;28;20041;-68
2022/08/09 08:23:04;;;;;;;4.00;2.22;;;20.10;99.90;;;;;;5064597;28;20049;-68
2022/08/09 08:25:30;;;;;;;1.63;0.90;;;20.30;99.90;;;;;;5061296;28;20175;-68
2022/08/09 08:27:55;;;;;;;11.98;2.38;;;20.60;99.90;;;;;;5063951;28;20131;-68
2022/08/09 08:30:21;;;;;;;5.75;2.25;;;20.40;99.90;;;;;;5064175;28;20457;-68
2022/08/09 08:32:47;;;;;;;1.75;0.50;;;20.70;99.90;;;;;;5045718;28;20498;-68
2022/08/09 08:35:12;;;;;;;2.08;1.00;;;20.80;99.90;;;;;;5065576;28;20049;-68
2022/08/09 08:37:38;;;;;;;3.05;1.17;;;20.80;99.90;;;;;;5045567;28;20075;-68
2022/08/09 08:40:05;;;;;;;2.15;1.23;;;21.00;99.90;;;;;;5044535;28;20041;-67
2022/08/09 08:42:32;;;;;;;3.15;1.13;;;20.90;99.90;;;;;;5062522;28;20059;-68
2022/08/09 08:44:59;;;;;;;0.40;0.40;;;20.50;99.90;;;;;;5058557;28;20126;-68
2022/08/09 08:47:26;;;;;;;3.65;0.70;;;20.30;99.90;;;;;;5045534;28;20081;-67
2022/08/09 08:49:53;;;;;;;2.95;0.73;;;20.00;99.90;;;;;;5045228;28;20124;-68
2022/08/09 08:52:24;;;;;;;5.35;1.15;;;19.70;99.90;;;;;;5046606;28;20057;-69
2022/08/09 08:54:54;;;;;;;2.33;0.90;;;19.40;99.90;;;;;;5040891;28;20037;-68
2022/08/09 08:57:20;;;;;;;1.27;0.77;;;19.40;99.90;;;;;;5039380;28;20041;-68
2022/08/09 08:59:47;;;;;;;2.65;0.73;;;19.40;99.90;;;;;;5045521;28;20045;-68
2022/08/09 09:02:25;;;;;;;0.63;0.63;;;19.20;99.90;;;;;;5044238;28;20049;-68
2022/08/09 09:04:53;;;;;;;2.72;0.82;;;19.80;99.90;;;;;;5042613;28;20049;-73
2022/08/09 09:07:20;;;;;;;4.40;1.60;;;20.00;99.90;;;;;;5024097;28;20047;-74
2022/08/09 09:09:47;;;;;;;0.70;0.60;;;19.90;99.90;;;;;;5037539;28;20065;-73
2022/08/09 09:12:15;;;;;;;1.27;0.68;;;19.70;99.90;;;;;;5053322;28;20445;-74
2022/08/09 09:14:41;;;;;;;4.22;0.75;;;19.90;99.90;;;;;;5044339;28;20048;-68
2022/08/09 09:17:07;;;;;;;2.58;0.90;;;19.80;99.90;;;;;;5045796;28;20040;-69
2022/08/09 09:19:33;;;;;;;2.10;1.05;;;20.10;99.90;;;;;;5049292;28;20112;-70
2022/08/09 09:22:07;;;;;;;6.38;0.80;;;20.40;99.90;;;;;;5046916;28;20554;-69
2022/08/09 09:24:39;;;;;;;1.38;0.60;;;20.60;99.90;;;;;;5048723;28;20458;-70
2022/08/09 09:27:06;;;;;;;2.75;0.77;;;20.70;99.90;;;;;;5043717;28;20048;-70
2022/08/09 09:29:35;;;;;;;0.85;0.50;;;21.10;99.90;;;;;;5042209;28;20056;-69
2022/08/09 09:32:01;;;;;;;2.00;0.70;;;20.90;99.90;;;;;;5046856;28;20056;-69
2022/08/09 09:34:27;;;;;;;1.15;0.47;;;20.40;99.90;;;;;;5049183;28;20090;-69
2022/08/09 09:36:54;;;;;;;1.38;0.57;;;20.30;99.90;;;;;;5046486;28;20482;-69
2022/08/09 09:39:21;;;;;;;1.90;0.63;;;20.50;99.90;;;;;;5047469;28;20033;-70
2022/08/09 09:41:49;;;;;;;3.90;2.00;;;20.30;99.90;;;;;;5047742;28;20045;-69
2022/08/09 09:44:28;;;;;;;1.45;0.70;;;20.40;99.90;;;;;;5046901;28;20328;-69
2022/08/09 09:47:09;;;;;;;1.17;0.60;;;20.90;99.90;;;;;;5042538;28;20173;-68
2022/08/09 09:49:36;;;;;;;2.22;0.68;;;21.20;99.90;;;;;;5040633;28;20064;-68
2022/08/09 09:52:05;;;;;;;0.82;0.70;;;20.90;99.90;;;;;;5045658;28;20057;-69
2022/08/09 09:54:41;;;;;;;2.28;0.40;;;21.10;99.90;;;;;;5045514;28;20309;-68
2022/08/09 09:57:17;;;;;;;1.13;0.38;;;21.10;99.90;;;;;;5044567;28;20056;-69
2022/08/09 09:59:44;;;;;;;2.47;1.05;;;21.10;99.90;;;;;;5041429;28;20072;-69
2022/08/09 10:02:10;;;;;;;1.83;0.73;;;21.00;99.90;;;;;;5046617;28;20080;-70
2022/08/09 10:04:37;;;;;;;2.15;0.70;;;21.10;99.90;;;;;;5045982;28;20407;-69
2022/08/09 10:07:03;;;;;;;1.20;0.50;;;21.30;99.90;;;;;;5061910;28;20473;-70
2022/08/09 10:09:49;;;;;;;1.10;0.60;;;21.10;99.90;;;;;;5045637;28;20048;-70
2022/08/09 10:12:25;;;;;;;1.92;0.52;;;21.50;99.90;;;;;;5045687;28;20110;-68
2022/08/09 10:15:14;;;;;;;1.00;0.40;;;21.90;99.90;;;;;;5042936;28;20585;-68
2022/08/09 10:17:42;;;;;;;2.72;0.70;;;21.80;99.90;;;;;;5046702;28;20396;-68
2022/08/09 10:20:16;;;;;;;3.05;0.82;;;21.70;99.90;;;;;;5044850;28;20048;-68
2022/08/09 10:22:42;;;;;;;3.72;1.23;;;21.70;99.90;;;;;;5045658;28;20379;-68
2022/08/09 10:25:09;;;;;;;3.10;0.68;;;21.90;99.90;;;;;;5046857;28;20041;-67
2022/08/09 10:27:35;;;;;;;2.28;0.88;;;22.00;99.90;;;;;;5045674;28;20049;-67
2022/08/09 10:30:03;;;;;;;5.15;0.63;;;21.90;99.90;;;;;;5039855;28;20388;-68
2022/08/09 10:32:29;;;;;;;2.15;0.60;;;21.80;99.90;;;;;;5046175;28;20041;-68
2022/08/09 10:34:55;;;;;;;1.80;0.68;;;21.80;99.90;;;;;;5045373;28;20037;-68
2022/08/09 10:37:21;;;;;;;1.58;0.43;;;21.70;99.90;;;;;;5046392;28;20083;-69
2022/08/09 10:39:48;;;;;;;1.00;0.40;;;21.70;99.90;;;;;;5046774;28;20049;-66
2022/08/09 10:42:14;;;;;;;0.75;0.38;;;21.90;99.90;;;;;;5041967;28;20135;-67
2022/08/09 10:44:43;;;;;;;0.40;0.30;;;22.20;99.90;;;;;;5043320;28;20113;-67
2022/08/09 10:47:30;;;;;;;0.88;0.65;;;22.20;99.90;;;;;;5045460;28;20045;-67
2022/08/09 10:50:04;;;;;;;1.35;0.50;;;22.20;99.90;;;;;;5044791;28;20073;-66
2022/08/09 10:53:04;;;;;;;1.75;0.52;;;22.30;99.90;;;;;;5044822;28;20146;-66
2022/08/09 10:55:31;;;;;;;1.50;0.50;;;22.40;99.90;;;;;;5041793;28;20052;-67
2022/08/09 10:57:57;;;;;;;1.38;0.45;;;23.00;99.90;;;;;;5046405;28;20098;-66
2022/08/09 11:00:40;;;;;;;1.27;0.85;;;22.80;99.90;;;;;;5043375;28;20037;-67
2022/08/09 11:03:24;;;;;;;0.68;0.35;;;22.20;99.90;;;;;;5046119;28;20403;-67
2022/08/09 11:06:20;;;;;;;1.83;1.05;;;22.00;99.90;;;;;;5042855;28;20043;-67
2022/08/09 11:08:47;;;;;;;1.10;0.60;;;21.80;99.90;;;;;;5032028;28;20053;-67
2022/08/09 11:11:16;;;;;;;3.05;1.08;;;21.60;99.90;;;;;;5036561;28;20404;-67
2022/08/09 11:13:42;;;;;;;2.30;0.80;;;21.90;99.90;;;;;;5036387;28;20041;-67
2022/08/09 11:16:34;;;;;;;1.70;0.55;;;22.10;99.90;;;;;;5037723;28;20800;-67
2022/08/09 11:19:00;;;;;;;3.60;1.48;;;22.20;99.90;;;;;;5021870;28;20487;-67
2022/08/09 11:21:52;;;;;;;0.85;0.65;;;22.00;99.90;;;;;;5039339;28;20044;-67
2022/08/09 11:24:20;;;;;;;4.47;0.98;;;22.00;99.90;;;;;;5046147;28;20041;-67
2022/08/09 11:26:47;;;;;;;0.77;0.52;;;22.30;99.90;;;;;;5043688;28;20073;-71
2022/08/09 11:29:50;;;;;;;3.25;0.60;;;22.40;99.90;;;;;;5044461;28;20111;-72
2022/08/09 11:32:45;;;;;;;0.98;0.60;;;22.00;99.90;;;;;;5045412;28;20043;-82
2022/08/09 11:35:18;;;;;;;2.38;0.80;;;22.40;99.90;;;;;;5043276;28;20049;-76
2022/08/09 11:37:46;;;;;;;4.07;0.60;;;22.40;99.90;;;;;;5046207;28;20091;-75
2022/08/09 11:40:15;;;;;;;4.22;1.27;;;22.30;99.90;;;;;;5042276;28;21299;-73
2022/08/09 11:42:51;;;;;;;1.67;0.45;;;22.40;99.90;;;;;;5015917;28;20076;-74
2022/08/09 11:45:28;;;;;;;0.65;0.20;;;22.10;99.90;;;;;;5043307;28;20048;-75
2022/08/09 11:47:59;;;;;;;0.32;0.30;;;22.40;99.90;;;;;;5044596;28;20550;-74
2022/08/09 11:50:26;;;;;;;0.50;0.22;;;22.80;99.90;;;;;;5044269;28;20051;-73
2022/08/09 11:52:58;;;;;;;1.05;0.50;;;22.80;99.90;;;;;;5041110;28;20059;-74
2022/08/09 11:55:51;;;;;;;1.65;0.40;;;22.80;99.90;;;;;;5041463;28;20091;-74
2022/08/09 11:58:17;;;;;;;0.40;0.22;;;22.80;99.90;;;;;;5045072;28;20498;-74
2022/08/09 12:01:07;;;;;;;0.95;0.60;;;23.00;99.90;;;;;;5040628;28;20128;-74
2022/08/09 12:03:37;;;;;;;0.70;0.30;;;22.80;99.90;;;;;;5044625;28;20130;-74
2022/08/09 12:06:18;;;;;;;0.80;0.70;;;23.00;99.90;;;;;;5046292;28;20492;-74
2022/08/09 12:08:52;;;;;;;0.45;0.22;;;22.90;99.90;;;;;;5044036;28;20122;-73
2022/08/09 12:11:21;;;;;;;0.68;0.65;;;23.30;99.90;;;;;;5044157;28;20037;-73
2022/08/09 12:13:54;;;;;;;2.63;1.02;;;23.00;99.90;;;;;;5038861;28;20102;-74
2022/08/09 12:16:30;;;;;;;2.28;0.40;;;23.20;99.90;;;;;;5042414;28;20056;-73
2022/08/09 12:18:58;;;;;;;1.98;0.40;;;22.90;99.90;;;;;;5045736;28;20181;-74
2022/08/09 12:21:30;;;;;;;0.68;0.65;;;22.70;99.90;;;;;;5043277;28;20041;-74
2022/08/09 12:23:57;;;;;;;0.85;0.28;;;22.80;99.90;;;;;;5044388;28;20049;-75
2022/08/09 12:26:23;;;;;;;2.97;0.47;;;23.10;99.90;;;;;;5030016;28;20045;-74
2022/08/09 12:28:51;;;;;;;0.52;0.30;;;22.90;99.90;;;;;;5035761;28;20057;-74
2022/08/09 12:31:21;;;;;;;1.85;0.30;;;23.10;99.90;;;;;;5044554;28;20056;-72
2022/08/09 12:33:49;;;;;;;1.02;0.43;;;23.20;99.90;;;;;;5044912;28;20134;-71
2022/08/09 12:36:16;;;;;;;0.85;0.40;;;23.20;99.90;;;;;;5038747;28;20060;-71
2022/08/09 12:38:42;;;;;;;0.95;0.22;;;23.50;99.90;;;;;;5043686;28;20427;-71
2022/08/09 12:41:08;;;;;;;0.30;0.20;;;23.60;99.90;;;;;;5043413;28;20143;-71
2022/08/09 12:43:34;;;;;;;0.95;0.47;;;23.60;99.90;;;;;;5044906;28;20052;-72
2022/08/09 12:46:00;;;;;;;2.67;0.40;;;23.60;99.90;;;;;;5041342;28;20091;-72
2022/08/09 12:48:28;;;;;;;0.22;0.20;;;23.50;99.90;;;;;;5043534;28;20092;-72
2022/08/09 12:50:54;;;;;;;0.30;0.20;;;23.50;99.90;;;;;;5045440;28;20044;-72
2022/08/09 12:53:39;;;;;;;0.40;0.20;;;23.60;99.90;;;;;;5058125;28;20062;-72